Aérodrome :
LOGIN :

S'inscrire | Disclaimer

   EN    FR    IT 

 










Légende :    VFR   VFR Marginal   IFR   IFR Intensif   IFR Très Intensif
Visi : 
Plafond : 
>= 8 km
>= 3000ft
5 à 8 km
1000 à 3000 ft
1500m à 5 km
500 à 1000 ft
800 à 1500m
200 à 500 ft
< 800m
< 200 ft
Symboles :   Orages  Brouillard  Fortes neiges  Fortes précipitations  Vent > 20 kt
SIGMETs :   Divers  Orages  Givrage  Turbulence  Onde Orograph.  Cendres Volcan.







- Altitude de l'aérodrome : 7 ft
- Code IATA : XHE
- Voir les cartes d'approche


LFTH - Hyeres

DERNIER METAR :
  • 220730Z AUTO 03004KT CAVOK 17/12 Q1020 NOSIG

METARs EXPIRÉS :
  • 220700Z AUTO 36004KT 330V030 9999 FEW044 OVC050 17/11 Q1020 NOSIG
  • 220630Z AUTO 36003KT 9999 BKN035 BKN048 BKN062 16/11 Q1019 NOSIG
  • 220600Z AUTO 03004KT 9999 FEW049 OVC072 16/11 Q1019 NOSIG
  • 220530Z AUTO 02004KT 350V060 9999 BKN049 OVC066 17/10 Q1019 NOSIG
  • 220500Z AUTO 05006KT 9999 OVC046 18/10 Q1019 NOSIG
  • 220430Z AUTO 07010KT 040V100 9999 BKN042 OVC060 18/11 Q1019 NOSIG

TAF TAF LFTH
Valide du 22 à 03h jusqu'au 23 à 03h UTC


220200Z 2203/2303 08015KT 9999 BKN040
BECMG 2204/2206 02005KT BKN050
BECMG 2210/2212 SCT043
BECMG 2212/2214 22010KT CAVOK
BECMG 2215/2217 VRB03KT
BECMG 2218/2220 34006KT
Pas de NOTAMs connus pour ce terrain.



MET'MAP, la Météo Aéronautique d'un coup d'oeil ! - Copyright ORBIFLY Décembre 2007 - Disclaimer

ORBIFLY MET'MAP TEAM :

Programmation & Développement : Alexandra Zaïnal
Conception & Développement : Baudouin d'Aumeries
Co-Programmation & Développement : Marc-Olivier Méhu
Soutien technique & logistique : Manuel Goepfert

Contact : metmap@orbifly.com




SOURCES & CREDITS :

   NOAA